createdAt,value
2023-09-13T00:03:46.081Z,98665.22
2023-09-13T00:07:48.813Z,98665.00
2023-09-13T00:11:51.230Z,98675.09
2023-09-13T00:15:53.581Z,98675.34
2023-09-13T00:19:57.509Z,98671.38
2023-09-13T00:24:00.110Z,98679.31
2023-09-13T00:28:02.241Z,98682.22
2023-09-13T00:32:04.711Z,98682.84
2023-09-13T00:36:06.891Z,98690.13
2023-09-13T00:40:09.794Z,98695.06
2023-09-13T00:44:11.976Z,98686.91
2023-09-13T00:48:16.398Z,98682.03
2023-09-13T00:52:18.874Z,98680.47
2023-09-13T00:56:21.277Z,98667.88
2023-09-13T01:00:25.586Z,98674.44
2023-09-13T01:04:30.797Z,98679.41
2023-09-13T01:08:49.142Z,98678.03
2023-09-13T01:12:56.886Z,98667.00
2023-09-13T01:17:24.720Z,98666.34
2023-09-13T01:21:41.443Z,98668.25
2023-09-13T01:26:34.677Z,98661.25
2023-09-13T01:30:38.555Z,98658.38
2023-09-13T01:34:40.905Z,98670.06
2023-09-13T01:38:43.491Z,98682.97
2023-09-13T01:42:47.433Z,98672.59
2023-09-13T01:46:52.319Z,98659.84
2023-09-13T01:50:55.245Z,98664.53
2023-09-13T01:54:57.342Z,98660.66
2023-09-13T01:58:59.497Z,98656.84
2023-09-13T02:03:01.748Z,98659.13
2023-09-13T02:07:04.752Z,98660.59
2023-09-13T02:11:10.002Z,98663.50
2023-09-13T02:15:13.812Z,98673.16
2023-09-13T02:19:15.910Z,98675.59
2023-09-13T02:23:18.029Z,98679.91
2023-09-13T02:27:23.876Z,98655.63
2023-09-13T02:31:29.499Z,98652.84
2023-09-13T02:35:32.271Z,98657.03
2023-09-13T02:39:36.776Z,98647.50
2023-09-13T02:43:41.202Z,98644.19
2023-09-13T02:47:44.431Z,98644.28
2023-09-13T02:51:48.582Z,98637.50
2023-09-13T02:55:50.726Z,98641.09
2023-09-13T02:59:53.271Z,98639.19
2023-09-13T03:03:55.373Z,98634.31
2023-09-13T03:07:58.245Z,98641.94
2023-09-13T03:12:00.572Z,98642.84
2023-09-13T03:16:03.074Z,98654.38
2023-09-13T03:20:05.730Z,98650.44
2023-09-13T03:24:12.135Z,98650.63
2023-09-13T03:28:14.779Z,98660.28
2023-09-13T03:32:17.491Z,98667.47
2023-09-13T03:36:21.692Z,98674.13
2023-09-13T03:40:28.321Z,98665.56
2023-09-13T03:44:30.419Z,98665.94
2023-09-13T03:48:33.833Z,98662.97
2023-09-13T03:52:35.960Z,98669.44
2023-09-13T03:56:38.969Z,98665.75
2023-09-13T04:00:41.646Z,98673.28
2023-09-13T04:04:43.846Z,98677.16
2023-09-13T04:08:46.079Z,98683.13
2023-09-13T04:12:49.507Z,98673.06
2023-09-13T04:16:52.216Z,98667.91
2023-09-13T04:20:54.391Z,98676.88
2023-09-13T04:24:56.477Z,98681.44
2023-09-13T04:28:58.665Z,98692.25
2023-09-13T04:33:03.446Z,98683.22
2023-09-13T04:37:07.451Z,98683.69
2023-09-13T04:41:14.620Z,98691.78
2023-09-13T04:45:17.125Z,98708.84
2023-09-13T04:49:19.648Z,98722.16
2023-09-13T04:53:22.817Z,98728.72
2023-09-13T04:57:24.937Z,98722.69
2023-09-13T05:01:28.108Z,98727.97
2023-09-13T05:05:31.503Z,98729.53
2023-09-13T05:09:34.348Z,98735.78
2023-09-13T05:13:40.100Z,98719.97
2023-09-13T05:17:42.457Z,98731.09
2023-09-13T05:21:44.665Z,98730.59
2023-09-13T05:25:47.685Z,98747.56
2023-09-13T05:29:49.830Z,98731.44
2023-09-13T05:33:51.948Z,98733.97
2023-09-13T05:37:54.143Z,98743.19
2023-09-13T05:41:57.295Z,98748.31
2023-09-13T05:45:59.577Z,98730.75
2023-09-13T05:50:01.723Z,98748.41
2023-09-13T05:54:04.810Z,98750.00
2023-09-13T05:58:06.969Z,98755.16
2023-09-13T06:02:10.624Z,98758.38
2023-09-13T06:06:12.997Z,98767.13
2023-09-13T06:10:15.555Z,98785.25
2023-09-13T06:14:19.886Z,98796.56
2023-09-13T06:18:22.023Z,98787.47
2023-09-13T06:22:24.656Z,98789.94
2023-09-13T06:26:27.071Z,98797.88
2023-09-13T06:30:29.269Z,98800.81
2023-09-13T06:34:31.672Z,98777.78
2023-09-13T06:38:34.551Z,98772.81
2023-09-13T06:42:54.239Z,98782.00
2023-09-13T06:47:04.664Z,98791.50
2023-09-13T06:55:13.058Z,98800.56
2023-09-13T06:59:18.069Z,98785.94
2023-09-13T07:03:22.588Z,98794.53
2023-09-13T07:07:25.565Z,98814.97
2023-09-13T07:11:28.098Z,98815.41
2023-09-13T07:15:30.294Z,98817.56
2023-09-13T07:19:32.625Z,98807.22
2023-09-13T07:23:35.394Z,98802.13
2023-09-13T07:27:37.522Z,98814.25
2023-09-13T07:31:39.806Z,98810.38
2023-09-13T07:35:41.898Z,98808.03
2023-09-13T07:39:44.011Z,98808.56
2023-09-13T07:43:46.139Z,98801.47
2023-09-13T07:47:48.489Z,98815.06
2023-09-13T07:51:50.596Z,98818.56
2023-09-13T07:55:52.692Z,98820.16
2023-09-13T07:59:57.575Z,98831.00
2023-09-13T08:03:59.734Z,98816.31
2023-09-13T08:08:02.179Z,98818.13
2023-09-13T08:12:04.760Z,98805.22
2023-09-13T08:16:07.104Z,98822.41
2023-09-13T08:20:10.269Z,98815.50
2023-09-13T08:24:12.525Z,98827.88
2023-09-13T08:28:14.772Z,98837.72
2023-09-13T08:32:16.978Z,98846.56
2023-09-13T08:36:19.052Z,98865.28
2023-09-13T08:40:21.533Z,98870.19
2023-09-13T08:44:26.321Z,98879.75
2023-09-13T08:48:29.301Z,98885.66
2023-09-13T08:52:32.855Z,98870.63
2023-09-13T08:56:36.551Z,98853.88
2023-09-13T09:00:41.580Z,98849.03
2023-09-13T09:04:44.733Z,98840.75
2023-09-13T09:08:50.804Z,98839.22
2023-09-13T09:12:58.226Z,98834.31
2023-09-13T09:17:02.488Z,98822.69
2023-09-13T09:21:05.411Z,98833.34
2023-09-13T09:25:12.922Z,98812.31
2023-09-13T09:29:19.559Z,98817.16
2023-09-13T09:33:29.920Z,98810.16
2023-09-13T09:37:33.965Z,98800.31
2023-09-13T09:41:38.045Z,98805.16
2023-09-13T09:45:40.215Z,98798.97
2023-09-13T09:49:50.788Z,98775.88
2023-09-13T09:53:53.856Z,98786.16
2023-09-13T09:57:56.203Z,98805.78
2023-09-13T10:01:59.715Z,98809.09
2023-09-13T10:06:04.655Z,98808.34
2023-09-13T10:10:09.741Z,98804.06
2023-09-13T10:14:26.087Z,98818.13
2023-09-13T10:18:32.196Z,98830.06
2023-09-13T10:22:37.076Z,98832.44
2023-09-13T10:26:41.054Z,98829.69
2023-09-13T10:30:48.128Z,98822.16
2023-09-13T10:34:56.003Z,98814.00
2023-09-13T10:39:18.966Z,98816.22
2023-09-13T10:43:22.637Z,98806.53
2023-09-13T10:47:24.937Z,98801.34
2023-09-13T10:51:30.785Z,98807.38
2023-09-13T10:55:34.842Z,98806.28
2023-09-13T10:59:37.597Z,98800.16
2023-09-13T11:03:41.904Z,98778.28
2023-09-13T11:07:48.111Z,98764.44
2023-09-13T11:11:55.235Z,98755.66
2023-09-13T11:16:00.729Z,98756.91
2023-09-13T11:20:22.699Z,98761.66
2023-09-13T11:25:02.034Z,98756.09
2023-09-13T11:29:22.299Z,98758.66
2023-09-13T11:33:24.616Z,98774.59
2023-09-13T11:37:28.228Z,98765.28
2023-09-13T11:41:52.746Z,98769.25
2023-09-13T11:45:58.721Z,98762.78
2023-09-13T11:50:10.925Z,98756.47
2023-09-13T11:54:17.655Z,98746.47
2023-09-13T11:58:36.533Z,98746.22
2023-09-13T12:02:46.707Z,98746.78
2023-09-13T12:06:55.188Z,98748.38
2023-09-13T12:11:00.652Z,98749.72
2023-09-13T12:15:04.840Z,98742.25
2023-09-13T12:19:12.438Z,98750.22
2023-09-13T12:23:18.296Z,98739.94
2023-09-13T12:27:21.039Z,98735.75
2023-09-13T12:31:23.373Z,98729.97
2023-09-13T12:35:25.612Z,98722.13
2023-09-13T12:39:27.967Z,98729.66
2023-09-13T12:43:31.054Z,98719.41
2023-09-13T12:47:33.972Z,98715.19
2023-09-13T12:51:37.486Z,98705.72
2023-09-13T12:55:40.245Z,98701.03
2023-09-13T12:59:43.017Z,98703.72
2023-09-13T13:04:02.790Z,98712.00
2023-09-13T13:12:15.274Z,98709.50
2023-09-13T13:16:19.595Z,98707.88
2023-09-13T13:20:27.589Z,98713.41
2023-09-13T13:24:30.351Z,98705.50
2023-09-13T13:28:32.669Z,98699.97
2023-09-13T13:32:34.847Z,98698.22
2023-09-13T13:36:36.988Z,98703.03
2023-09-13T13:40:39.149Z,98697.22
2023-09-13T13:44:41.313Z,98701.63
2023-09-13T13:48:45.059Z,98688.34
2023-09-13T13:52:48.112Z,98675.56
2023-09-13T13:56:50.998Z,98669.75
2023-09-13T14:00:54.717Z,98676.03
2023-09-13T14:04:57.009Z,98670.81
2023-09-13T14:09:00.228Z,98670.44
2023-09-13T14:13:02.328Z,98666.56
2023-09-13T14:17:05.331Z,98670.50
2023-09-13T14:21:07.496Z,98661.47
2023-09-13T14:25:10.881Z,98661.50
2023-09-13T14:29:16.050Z,98670.53
2023-09-13T14:33:19.466Z,98668.25
2023-09-13T14:37:21.620Z,98655.63
2023-09-13T14:41:26.047Z,98657.47
2023-09-13T14:45:28.485Z,98644.47
2023-09-13T14:49:30.713Z,98650.81
2023-09-13T14:53:33.472Z,98640.72
2023-09-13T14:57:36.331Z,98637.59
2023-09-13T15:01:38.620Z,98647.47
2023-09-13T15:05:40.768Z,98643.94
2023-09-13T15:09:43.152Z,98630.59
2023-09-13T15:13:47.176Z,98634.91
2023-09-13T15:17:49.441Z,98632.53
2023-09-13T15:21:51.611Z,98630.91
2023-09-13T15:25:53.870Z,98646.94
2023-09-13T15:29:56.238Z,98635.16
2023-09-13T15:33:59.331Z,98639.88
2023-09-13T15:38:01.446Z,98633.59
2023-09-13T15:42:03.834Z,98635.16
2023-09-13T15:46:07.569Z,98632.66
2023-09-13T15:50:10.038Z,98642.03
2023-09-13T15:54:12.220Z,98631.59
2023-09-13T15:58:14.469Z,98641.94
2023-09-13T16:02:17.123Z,98626.59
2023-09-13T16:06:19.463Z,98636.69
2023-09-13T16:10:25.386Z,98624.81
2023-09-13T16:14:35.856Z,98631.63
2023-09-13T16:18:38.247Z,98635.22
2023-09-13T16:22:40.734Z,98633.28
2023-09-13T16:26:42.840Z,98644.38
2023-09-13T16:30:45.410Z,98637.94
2023-09-13T16:34:47.563Z,98629.53
2023-09-13T16:38:49.695Z,98635.31
2023-09-13T16:42:52.200Z,98639.03
2023-09-13T16:46:54.373Z,98635.34
2023-09-13T16:50:56.532Z,98640.47
2023-09-13T16:54:58.791Z,98640.75
2023-09-13T16:59:00.917Z,98650.16
2023-09-13T17:03:03.212Z,98647.72
2023-09-13T17:07:08.082Z,98634.25
2023-09-13T17:11:14.297Z,98641.69
2023-09-13T17:15:16.934Z,98650.69
2023-09-13T17:19:19.272Z,98666.03
2023-09-13T17:23:22.172Z,98666.47
2023-09-13T17:27:24.361Z,98662.22
2023-09-13T17:31:29.813Z,98661.13
2023-09-13T17:35:32.102Z,98674.41
2023-09-13T17:39:34.279Z,98670.88
2023-09-13T17:43:36.457Z,98681.72
2023-09-13T17:47:38.536Z,98690.78
2023-09-13T17:51:40.690Z,98702.28
2023-09-13T17:55:42.829Z,98694.22
2023-09-13T17:59:45.130Z,98670.44
2023-09-13T18:03:47.480Z,98681.56
2023-09-13T18:07:49.949Z,98684.88
2023-09-13T18:11:54.135Z,98699.72
2023-09-13T18:15:59.769Z,98701.41
2023-09-13T18:20:01.988Z,98704.66
2023-09-13T18:24:04.596Z,98698.59
2023-09-13T18:28:07.070Z,98702.81
2023-09-13T18:32:09.210Z,98706.78
2023-09-13T18:36:11.296Z,98715.22
2023-09-13T18:40:13.462Z,98715.97
2023-09-13T18:44:16.409Z,98715.78
2023-09-13T18:48:18.640Z,98724.03
2023-09-13T18:52:21.060Z,98720.97
2023-09-13T18:56:23.383Z,98721.22
2023-09-13T19:00:25.582Z,98729.13
2023-09-13T19:04:29.285Z,98733.09
2023-09-13T19:08:32.664Z,98736.03
2023-09-13T19:12:34.688Z,98741.25
2023-09-13T19:16:38.257Z,98734.94
2023-09-13T19:20:46.577Z,98741.63
2023-09-13T19:24:56.700Z,98742.53
2023-09-13T19:28:59.839Z,98748.63
2023-09-13T19:33:04.435Z,98744.91
2023-09-13T19:37:06.631Z,98743.91
2023-09-13T19:41:12.186Z,98750.47
2023-09-13T19:45:14.469Z,98748.34
2023-09-13T19:49:16.884Z,98749.84
2023-09-13T19:53:19.000Z,98741.38
2023-09-13T19:57:21.681Z,98742.69
2023-09-13T20:01:26.669Z,98744.88
2023-09-13T20:05:28.848Z,98731.19
2023-09-13T20:09:31.160Z,98740.91
2023-09-13T20:13:33.625Z,98738.66
2023-09-13T20:17:35.834Z,98759.69
2023-09-13T20:21:38.005Z,98755.41
2023-09-13T20:25:40.225Z,98769.63
2023-09-13T20:29:43.125Z,98764.69
2023-09-13T20:33:47.171Z,98773.63
2023-09-13T20:37:50.410Z,98775.66
2023-09-13T20:41:53.134Z,98783.00
2023-09-13T20:45:56.677Z,98785.13
2023-09-13T20:49:59.323Z,98791.25
2023-09-13T20:54:01.532Z,98791.16
2023-09-13T20:58:04.133Z,98796.81
2023-09-13T21:02:06.314Z,98801.84
2023-09-13T21:06:08.745Z,98800.72
2023-09-13T21:10:10.936Z,98803.09
2023-09-13T21:14:13.061Z,98811.53
2023-09-13T21:18:15.256Z,98819.53
2023-09-13T21:22:17.380Z,98824.47
2023-09-13T21:26:19.664Z,98832.47
2023-09-13T21:30:21.839Z,98825.84
2023-09-13T21:34:24.871Z,98833.13
2023-09-13T21:38:27.816Z,98828.59
2023-09-13T21:42:29.983Z,98822.53
2023-09-13T21:46:32.107Z,98829.66
2023-09-13T21:50:34.235Z,98826.03
2023-09-13T21:54:46.705Z,98829.53
2023-09-13T21:58:48.913Z,98816.19
2023-09-13T22:02:51.132Z,98819.78
2023-09-13T22:06:54.650Z,98824.56
2023-09-13T22:11:08.624Z,98816.00
2023-09-13T22:15:11.715Z,98825.41
2023-09-13T22:19:14.808Z,98826.50
2023-09-13T22:23:17.092Z,98813.78
2023-09-13T22:27:19.243Z,98817.91
2023-09-13T22:31:21.485Z,98818.47
2023-09-13T22:35:23.763Z,98824.34
2023-09-13T22:39:26.218Z,98807.94
2023-09-13T22:43:28.490Z,98819.41
2023-09-13T22:47:30.610Z,98822.31
2023-09-13T22:51:33.005Z,98819.94
2023-09-13T22:55:35.922Z,98816.13
2023-09-13T22:59:38.102Z,98817.09
2023-09-13T23:03:46.154Z,98810.72
2023-09-13T23:07:55.124Z,98803.25
2023-09-13T23:11:57.263Z,98794.16
2023-09-13T23:16:05.741Z,98799.88
2023-09-13T23:20:12.447Z,98793.53
2023-09-13T23:24:16.370Z,98797.38
2023-09-13T23:28:18.434Z,98789.59
2023-09-13T23:32:21.141Z,98781.00
2023-09-13T23:36:23.412Z,98775.72
2023-09-13T23:40:25.494Z,98781.47
2023-09-13T23:44:28.102Z,98774.78
2023-09-13T23:48:30.938Z,98771.94
2023-09-13T23:52:33.092Z,98770.53
2023-09-13T23:56:35.147Z,98784.38
